createdAt,value
2023-06-22T00:01:30.828Z,21.86
2023-06-22T00:03:33.794Z,21.82
2023-06-22T00:05:35.381Z,21.70
2023-06-22T00:07:36.973Z,21.65
2023-06-22T00:09:38.507Z,21.65
2023-06-22T00:11:40.245Z,21.50
2023-06-22T00:13:41.777Z,21.48
2023-06-22T00:15:43.347Z,21.46
2023-06-22T00:17:46.853Z,21.49
2023-06-22T00:19:49.836Z,21.50
2023-06-22T00:21:51.655Z,21.52
2023-06-22T00:23:53.236Z,21.45
2023-06-22T00:25:54.864Z,21.37
2023-06-22T00:27:56.398Z,21.31
2023-06-22T00:29:57.968Z,21.39
2023-06-22T00:31:59.549Z,21.49
2023-06-22T00:34:01.078Z,21.37
2023-06-22T00:36:04.546Z,21.29
2023-06-22T00:38:06.104Z,21.39
2023-06-22T00:40:08.863Z,21.38
2023-06-22T00:42:10.457Z,21.33
2023-06-22T00:44:12.006Z,21.27
2023-06-22T00:46:13.811Z,21.34
2023-06-22T00:48:15.970Z,21.35
2023-06-22T00:50:21.922Z,21.36
2023-06-22T00:52:26.065Z,21.37
2023-06-22T00:54:28.357Z,21.45
2023-06-22T00:56:29.902Z,21.27
2023-06-22T00:58:31.668Z,21.08
2023-06-22T01:00:33.354Z,20.90
2023-06-22T01:02:35.299Z,20.91
2023-06-22T01:04:39.266Z,20.98
2023-06-22T01:06:49.786Z,20.60
2023-06-22T01:08:58.009Z,20.39
2023-06-22T01:11:07.141Z,20.40
2023-06-22T01:13:17.273Z,20.52
2023-06-22T01:15:24.515Z,20.63
2023-06-22T01:17:27.800Z,20.61
2023-06-22T01:19:36.563Z,20.72
2023-06-22T01:21:38.364Z,20.71
2023-06-22T01:23:56.392Z,20.84
2023-06-22T01:26:05.096Z,20.79
2023-06-22T01:28:18.519Z,20.67
2023-06-22T01:30:21.696Z,20.65
2023-06-22T01:32:23.346Z,20.70
2023-06-22T01:34:25.344Z,20.88
2023-06-22T01:36:28.079Z,20.80
2023-06-22T01:38:31.034Z,20.65
2023-06-22T01:40:33.988Z,20.63
2023-06-22T01:42:36.473Z,20.69
2023-06-22T01:44:39.211Z,20.73
2023-06-22T01:46:42.557Z,20.65
2023-06-22T01:48:44.061Z,20.67
2023-06-22T01:50:46.124Z,20.82
2023-06-22T01:52:47.766Z,20.66
2023-06-22T01:54:49.502Z,20.50
2023-06-22T01:56:51.275Z,20.51
2023-06-22T01:58:59.027Z,20.59
2023-06-22T02:01:10.183Z,20.43
2023-06-22T02:03:18.492Z,20.42
2023-06-22T02:05:20.721Z,20.50
2023-06-22T02:07:24.641Z,20.47
2023-06-22T02:09:29.853Z,20.56
2023-06-22T02:11:32.760Z,20.63
2023-06-22T02:13:34.853Z,20.50
2023-06-22T02:15:37.409Z,20.40
2023-06-22T02:17:39.495Z,20.45
2023-06-22T02:19:43.406Z,20.39
2023-06-22T02:21:45.074Z,20.41
2023-06-22T02:23:46.703Z,20.50
2023-06-22T02:25:48.424Z,20.49
2023-06-22T02:27:50.052Z,20.40
2023-06-22T02:29:51.708Z,20.36
2023-06-22T02:31:53.481Z,20.41
2023-06-22T02:33:55.070Z,20.49
2023-06-22T02:35:57.960Z,20.54
2023-06-22T02:37:59.547Z,20.41
2023-06-22T02:40:01.151Z,20.36
2023-06-22T02:42:02.794Z,20.33
2023-06-22T02:44:04.900Z,20.34
2023-06-22T02:46:06.511Z,20.43
2023-06-22T02:48:08.095Z,20.46
2023-06-22T02:50:10.546Z,20.41
2023-06-22T02:52:13.477Z,20.31
2023-06-22T02:54:15.071Z,20.24
2023-06-22T02:56:16.647Z,20.23
2023-06-22T02:58:18.195Z,20.10
2023-06-22T03:00:20.407Z,20.11
2023-06-22T03:02:21.997Z,19.97
2023-06-22T03:04:23.576Z,20.16
2023-06-22T03:06:25.246Z,20.12
2023-06-22T03:08:28.452Z,20.19
2023-06-22T03:10:30.332Z,20.29
2023-06-22T03:12:32.078Z,20.16
2023-06-22T03:14:34.838Z,20.15
2023-06-22T03:16:36.434Z,20.12
2023-06-22T03:18:37.975Z,20.13
2023-06-22T03:20:39.529Z,20.16
2023-06-22T03:22:42.141Z,20.01
2023-06-22T03:24:45.048Z,20.02
2023-06-22T03:26:46.625Z,20.12
2023-06-22T03:28:48.206Z,20.07
2023-06-22T03:30:49.779Z,20.09
2023-06-22T03:32:51.330Z,19.97
2023-06-22T03:34:52.881Z,20.11
2023-06-22T03:36:54.415Z,20.22
2023-06-22T03:38:56.639Z,20.25
2023-06-22T03:40:59.554Z,20.19
2023-06-22T03:43:01.137Z,20.12
2023-06-22T03:45:03.188Z,19.88
2023-06-22T03:47:05.604Z,19.80
2023-06-22T03:49:07.133Z,19.82
2023-06-22T03:51:08.785Z,19.79
2023-06-22T03:53:10.384Z,19.77
2023-06-22T03:55:11.902Z,19.93
2023-06-22T03:57:14.851Z,19.86
2023-06-22T03:59:16.367Z,19.79
2023-06-22T04:01:18.363Z,19.78
2023-06-22T04:03:20.802Z,19.73
2023-06-22T04:05:22.625Z,19.93
2023-06-22T04:07:24.183Z,19.96
2023-06-22T04:09:25.692Z,19.94
2023-06-22T04:11:27.621Z,19.96
2023-06-22T04:13:30.523Z,19.96
2023-06-22T04:15:32.114Z,19.75
2023-06-22T04:17:33.705Z,19.85
2023-06-22T04:19:35.309Z,19.74
2023-06-22T04:21:36.848Z,19.64
2023-06-22T04:23:38.423Z,19.75
2023-06-22T04:25:40.236Z,19.83
2023-06-22T04:27:41.765Z,19.91
2023-06-22T04:29:44.666Z,19.99
2023-06-22T04:31:46.220Z,19.97
2023-06-22T04:33:47.787Z,20.07
2023-06-22T04:35:49.363Z,20.11
2023-06-22T04:37:51.017Z,20.01
2023-06-22T04:39:52.604Z,20.22
2023-06-22T04:41:54.168Z,20.28
2023-06-22T04:43:55.737Z,20.30
2023-06-22T04:45:58.750Z,20.55
2023-06-22T04:48:00.460Z,20.43
2023-06-22T04:50:02.087Z,20.45
2023-06-22T04:52:05.449Z,20.40
2023-06-22T04:54:07.247Z,20.64
2023-06-22T04:56:09.497Z,20.63
2023-06-22T04:58:11.057Z,20.64
2023-06-22T05:00:14.399Z,20.60
2023-06-22T05:02:17.671Z,20.63
2023-06-22T05:04:19.429Z,20.62
2023-06-22T05:06:21.148Z,20.72
2023-06-22T05:08:22.782Z,20.83
2023-06-22T05:10:24.308Z,20.92
2023-06-22T05:12:25.846Z,20.96
2023-06-22T05:14:27.415Z,21.05
2023-06-22T05:16:29.004Z,21.20
2023-06-22T05:18:32.626Z,21.18
2023-06-22T05:20:34.386Z,21.28
2023-06-22T05:22:35.919Z,21.36
2023-06-22T05:24:37.432Z,21.36
2023-06-22T05:26:38.968Z,21.55
2023-06-22T05:28:40.638Z,21.64
2023-06-22T05:30:42.268Z,21.50
2023-06-22T05:32:43.844Z,21.45
2023-06-22T05:34:46.807Z,21.32
2023-06-22T05:36:48.362Z,21.48
2023-06-22T05:38:49.904Z,21.62
2023-06-22T05:40:51.440Z,21.74
2023-06-22T05:42:52.975Z,21.61
2023-06-22T05:44:54.521Z,21.59
2023-06-22T05:46:56.070Z,21.45
2023-06-22T05:48:57.603Z,21.45
2023-06-22T05:51:00.585Z,21.44
2023-06-22T05:53:02.112Z,21.35
2023-06-22T05:55:03.989Z,21.34
2023-06-22T05:57:05.844Z,21.50
2023-06-22T05:59:07.365Z,21.46
2023-06-22T06:01:08.924Z,21.56
2023-06-22T06:03:11.972Z,21.70
2023-06-22T06:05:15.147Z,21.68
2023-06-22T06:07:18.052Z,21.93
2023-06-22T06:09:19.841Z,21.81
2023-06-22T06:11:21.430Z,21.95
2023-06-22T06:13:22.950Z,22.03
2023-06-22T06:15:24.787Z,22.11
2023-06-22T06:17:26.417Z,22.16
2023-06-22T06:19:28.011Z,22.15
2023-06-22T06:21:31.251Z,22.04
2023-06-22T06:23:34.420Z,21.93
2023-06-22T06:25:35.996Z,22.06
2023-06-22T06:27:37.536Z,22.23
2023-06-22T06:29:39.076Z,22.22
2023-06-22T06:31:40.642Z,22.29
2023-06-22T06:33:42.185Z,22.37
2023-06-22T06:35:43.747Z,22.53
2023-06-22T06:37:46.984Z,22.74
2023-06-22T06:39:49.894Z,22.59
2023-06-22T06:41:51.403Z,22.71
2023-06-22T06:43:52.997Z,22.94
2023-06-22T06:45:54.609Z,22.90
2023-06-22T06:47:56.362Z,23.06
2023-06-22T06:49:57.959Z,23.09
2023-06-22T06:51:59.504Z,23.03
2023-06-22T06:54:01.123Z,23.06
2023-06-22T06:56:04.261Z,23.24
2023-06-22T06:58:05.822Z,23.32
2023-06-22T07:00:09.451Z,23.54
2023-06-22T07:02:10.964Z,23.49
2023-06-22T07:04:12.558Z,23.49
2023-06-22T07:06:14.507Z,23.49
2023-06-22T07:08:16.049Z,23.47
2023-06-22T07:10:17.649Z,23.63
2023-06-22T07:12:20.587Z,23.78
2023-06-22T07:14:22.136Z,23.74
2023-06-22T07:16:23.664Z,23.85
2023-06-22T07:18:25.246Z,23.93
2023-06-22T07:20:26.841Z,23.74
2023-06-22T07:22:28.394Z,23.77
2023-06-22T07:24:30.013Z,23.84
2023-06-22T07:26:31.536Z,23.86
2023-06-22T07:28:34.449Z,24.01
2023-06-22T07:30:36.419Z,23.97
2023-06-22T07:32:38.432Z,23.97
2023-06-22T07:34:40.080Z,24.18
2023-06-22T07:36:41.635Z,24.23
2023-06-22T07:38:43.161Z,24.17
2023-06-22T07:40:44.815Z,24.30
2023-06-22T07:42:46.350Z,24.25
2023-06-22T07:44:49.255Z,24.05
2023-06-22T07:46:50.821Z,24.08
2023-06-22T07:48:54.784Z,24.10
2023-06-22T07:50:58.021Z,24.33
2023-06-22T07:52:59.610Z,24.36
2023-06-22T07:55:01.190Z,24.51
2023-06-22T07:57:02.797Z,24.78
2023-06-22T07:59:04.364Z,24.84
2023-06-22T08:01:09.629Z,24.87
2023-06-22T08:03:12.118Z,24.94
2023-06-22T08:05:21.954Z,24.97
2023-06-22T08:07:36.958Z,25.36
2023-06-22T08:09:38.540Z,25.41
2023-06-22T08:11:40.064Z,25.36
2023-06-22T08:13:41.624Z,25.25
2023-06-22T08:15:43.181Z,25.23
2023-06-22T08:17:46.748Z,25.38
2023-06-22T08:19:48.355Z,25.32
2023-06-22T08:21:50.111Z,25.37
2023-06-22T08:23:51.693Z,25.41
2023-06-22T08:25:53.381Z,25.50
2023-06-22T08:27:54.920Z,25.53
2023-06-22T08:29:56.452Z,25.47
2023-06-22T08:31:58.088Z,25.63
2023-06-22T08:34:01.066Z,25.58
2023-06-22T08:36:02.619Z,25.52
2023-06-22T08:38:04.162Z,25.48
2023-06-22T08:40:07.956Z,25.54
2023-06-22T08:42:09.561Z,25.64
2023-06-22T08:44:11.085Z,25.75
2023-06-22T08:46:12.673Z,25.50
2023-06-22T08:48:14.356Z,25.31
2023-06-22T08:50:17.316Z,25.44
2023-06-22T08:52:19.325Z,25.65
2023-06-22T08:54:20.845Z,25.99
2023-06-22T08:56:22.422Z,26.04
2023-06-22T08:58:23.960Z,26.15
2023-06-22T09:00:25.714Z,26.14
2023-06-22T09:02:27.789Z,26.18
2023-06-22T09:04:29.702Z,26.20
2023-06-22T09:06:32.883Z,26.25
2023-06-22T09:08:34.418Z,26.51
2023-06-22T09:10:36.024Z,26.67
2023-06-22T09:12:37.603Z,26.89
2023-06-22T09:14:39.227Z,27.00
2023-06-22T09:16:40.874Z,27.05
2023-06-22T09:18:42.579Z,27.04
2023-06-22T09:20:44.465Z,27.19
2023-06-22T09:22:47.495Z,27.31
2023-06-22T09:24:49.092Z,27.38
2023-06-22T09:26:50.686Z,27.30
2023-06-22T09:28:52.230Z,27.39
2023-06-22T09:30:53.747Z,27.47
2023-06-22T09:32:55.309Z,27.68
2023-06-22T09:34:56.940Z,27.55
2023-06-22T09:36:58.548Z,27.68
2023-06-22T09:39:01.478Z,27.75
2023-06-22T09:41:03.080Z,27.66
2023-06-22T09:43:04.627Z,27.66
2023-06-22T09:45:07.092Z,27.70
2023-06-22T09:47:08.878Z,27.65
2023-06-22T09:49:10.405Z,27.83
2023-06-22T09:51:12.869Z,27.98
2023-06-22T09:53:14.409Z,27.98
2023-06-22T09:55:17.577Z,28.00
2023-06-22T09:57:19.314Z,28.10
2023-06-22T09:59:20.877Z,27.97
2023-06-22T10:01:22.410Z,27.59
2023-06-22T10:03:24.266Z,27.60
2023-06-22T10:05:26.129Z,27.52
2023-06-22T10:07:27.706Z,27.40
2023-06-22T10:09:29.312Z,27.41
2023-06-22T10:11:32.297Z,27.48
2023-06-22T10:13:33.824Z,27.45
2023-06-22T10:15:35.383Z,27.46
2023-06-22T10:17:36.979Z,27.71
2023-06-22T10:19:38.553Z,27.89
2023-06-22T10:21:40.138Z,27.87
2023-06-22T10:23:41.660Z,28.04
2023-06-22T10:25:43.347Z,28.01
2023-06-22T10:27:46.382Z,28.06
2023-06-22T10:29:47.910Z,28.04
2023-06-22T10:31:49.454Z,27.94
2023-06-22T10:33:50.966Z,28.05
2023-06-22T10:35:52.513Z,28.19
2023-06-22T10:37:54.070Z,28.22
2023-06-22T10:39:55.668Z,28.24
2023-06-22T10:41:57.260Z,28.03
2023-06-22T10:44:00.203Z,27.89
2023-06-22T10:46:01.744Z,27.85
2023-06-22T10:48:03.546Z,28.02
2023-06-22T10:50:06.560Z,28.10
2023-06-22T10:52:09.276Z,28.01
2023-06-22T10:54:10.831Z,28.18
2023-06-22T10:56:12.368Z,28.21
2023-06-22T10:58:13.901Z,27.97
2023-06-22T11:00:17.700Z,27.76
2023-06-22T11:02:19.609Z,27.96
2023-06-22T11:04:21.274Z,28.03
2023-06-22T11:06:22.825Z,28.02
2023-06-22T11:08:24.396Z,28.09
2023-06-22T11:10:25.985Z,28.18
2023-06-22T11:12:27.504Z,28.26
2023-06-22T11:14:29.129Z,28.17
2023-06-22T11:16:32.027Z,28.16
2023-06-22T11:18:33.570Z,28.10
2023-06-22T11:20:35.324Z,28.01
2023-06-22T11:22:37.092Z,28.07
2023-06-22T11:24:38.668Z,28.11
2023-06-22T11:26:40.315Z,28.29
2023-06-22T11:28:41.859Z,28.34
2023-06-22T11:30:43.386Z,28.54
2023-06-22T11:32:46.407Z,28.50
2023-06-22T11:34:48.024Z,28.57
2023-06-22T11:36:49.669Z,28.67
2023-06-22T11:38:51.200Z,28.71
2023-06-22T11:40:52.749Z,28.76
2023-06-22T11:42:54.271Z,28.67
2023-06-22T11:44:57.595Z,28.61
2023-06-22T11:46:59.995Z,28.39
2023-06-22T11:49:03.357Z,28.27
2023-06-22T11:51:04.936Z,28.30
2023-06-22T11:53:06.487Z,28.32
2023-06-22T11:55:08.769Z,28.25
2023-06-22T11:57:10.345Z,28.29
2023-06-22T11:59:11.858Z,28.28
2023-06-22T12:01:13.540Z,28.36
2023-06-22T12:03:15.219Z,28.35
2023-06-22T12:05:20.456Z,28.32
2023-06-22T12:07:21.981Z,28.38
2023-06-22T12:09:23.635Z,28.40
2023-06-22T12:11:25.170Z,28.42
2023-06-22T12:13:26.731Z,28.46
2023-06-22T12:15:28.296Z,28.41
2023-06-22T12:17:29.899Z,28.42
2023-06-22T12:19:31.428Z,28.37
2023-06-22T12:21:34.287Z,28.20
2023-06-22T12:23:35.855Z,28.31
2023-06-22T12:25:37.384Z,28.23
2023-06-22T12:27:39.085Z,28.23
2023-06-22T12:29:40.644Z,28.27
2023-06-22T12:31:42.178Z,28.27
2023-06-22T12:33:43.732Z,28.20
2023-06-22T12:35:45.371Z,28.21
2023-06-22T12:37:48.331Z,28.32
2023-06-22T12:39:49.917Z,28.37
2023-06-22T12:41:51.549Z,28.36
2023-06-22T12:43:53.154Z,28.39
2023-06-22T12:45:54.712Z,28.29
2023-06-22T12:47:56.356Z,28.25
2023-06-22T12:49:57.949Z,28.14
2023-06-22T12:51:59.483Z,27.96
2023-06-22T12:54:02.361Z,27.91
2023-06-22T12:56:04.286Z,27.85
2023-06-22T12:58:05.859Z,27.82
2023-06-22T13:00:08.674Z,27.68
2023-06-22T13:02:10.287Z,27.57
2023-06-22T13:04:11.909Z,27.47
2023-06-22T13:06:13.437Z,27.47
2023-06-22T13:08:15.026Z,27.53
2023-06-22T13:10:18.004Z,27.49
2023-06-22T13:12:20.322Z,27.53
2023-06-22T13:14:21.857Z,27.68
2023-06-22T13:16:23.397Z,27.66
2023-06-22T13:18:24.936Z,27.72
2023-06-22T13:20:26.513Z,27.81
2023-06-22T13:22:30.380Z,27.90
2023-06-22T13:24:31.991Z,27.96
2023-06-22T13:26:35.034Z,28.03
2023-06-22T13:28:36.588Z,28.09
2023-06-22T13:30:38.202Z,28.14
2023-06-22T13:32:39.760Z,28.21
2023-06-22T13:34:41.307Z,28.25
2023-06-22T13:36:42.833Z,28.29
2023-06-22T13:38:44.325Z,28.35
2023-06-22T13:40:46.329Z,28.25
2023-06-22T13:42:49.295Z,28.21
2023-06-22T13:44:50.803Z,28.31
2023-06-22T13:46:52.392Z,28.35
2023-06-22T13:48:56.842Z,28.23
2023-06-22T13:50:58.744Z,28.29
2023-06-22T13:53:00.365Z,28.38
2023-06-22T13:55:01.962Z,28.45
2023-06-22T13:57:03.726Z,28.52
2023-06-22T13:59:06.621Z,28.65
2023-06-22T14:01:08.747Z,28.52
2023-06-22T14:03:13.135Z,28.49
2023-06-22T14:05:14.702Z,28.86
2023-06-22T14:07:16.353Z,29.24
2023-06-22T14:09:17.938Z,29.51
2023-06-22T14:11:19.482Z,29.89
2023-06-22T14:13:21.064Z,29.93
2023-06-22T14:15:23.978Z,30.13
2023-06-22T14:17:25.522Z,30.15
2023-06-22T14:19:27.168Z,29.86
2023-06-22T14:21:28.722Z,30.05
2023-06-22T14:23:30.255Z,30.18
2023-06-22T14:25:31.784Z,30.32
2023-06-22T14:27:33.868Z,30.32
2023-06-22T14:29:35.416Z,30.23
2023-06-22T14:31:39.142Z,30.21
2023-06-22T14:33:40.824Z,30.72
2023-06-22T14:35:42.391Z,31.01
2023-06-22T14:37:43.968Z,31.41
2023-06-22T14:39:45.494Z,31.25
2023-06-22T14:41:47.055Z,31.40
2023-06-22T14:43:49.989Z,31.77
2023-06-22T14:45:52.897Z,31.84
2023-06-22T14:47:57.112Z,31.94
2023-06-22T14:49:58.659Z,32.21
2023-06-22T14:52:00.215Z,32.24
2023-06-22T14:54:01.869Z,32.20
2023-06-22T14:56:04.035Z,32.27
2023-06-22T14:58:05.609Z,32.13
2023-06-22T15:00:08.421Z,32.15
2023-06-22T15:02:10.085Z,32.08
2023-06-22T15:04:13.024Z,31.99
2023-06-22T15:06:14.611Z,31.78
2023-06-22T15:08:16.279Z,31.58
2023-06-22T15:10:18.165Z,32.06
2023-06-22T15:12:19.711Z,31.93
2023-06-22T15:14:21.255Z,31.78
2023-06-22T15:16:22.794Z,31.80
2023-06-22T15:18:24.312Z,31.78
2023-06-22T15:20:27.249Z,32.16
2023-06-22T15:22:28.631Z,32.16
2023-06-22T15:24:30.138Z,32.02
2023-06-22T15:26:31.696Z,31.75
2023-06-22T15:28:33.312Z,31.55
2023-06-22T15:30:34.869Z,31.28
2023-06-22T15:32:36.492Z,31.26
2023-06-22T15:34:38.844Z,31.12
2023-06-22T15:36:41.722Z,31.07
2023-06-22T15:38:43.439Z,31.20
2023-06-22T15:40:45.021Z,31.34
2023-06-22T15:42:46.613Z,31.04
2023-06-22T15:44:48.224Z,30.80
2023-06-22T15:46:50.148Z,30.37
2023-06-22T15:48:53.072Z,30.34
2023-06-22T15:50:56.450Z,29.89
2023-06-22T15:52:59.329Z,29.96
2023-06-22T15:55:00.851Z,29.73
2023-06-22T15:57:02.456Z,29.72
2023-06-22T15:59:04.037Z,29.50
2023-06-22T16:01:05.747Z,29.40
2023-06-22T16:03:09.288Z,29.22
2023-06-22T16:05:11.407Z,29.13
2023-06-22T16:07:12.962Z,29.12
2023-06-22T16:09:15.856Z,29.02
2023-06-22T16:11:17.369Z,28.91
2023-06-22T16:13:18.951Z,28.91
2023-06-22T16:15:20.568Z,28.96
2023-06-22T16:17:22.426Z,29.08
2023-06-22T16:19:24.154Z,29.07
2023-06-22T16:21:25.788Z,29.01
2023-06-22T16:23:27.327Z,28.88
2023-06-22T16:25:30.252Z,28.70
2023-06-22T16:27:31.846Z,28.93
2023-06-22T16:29:33.385Z,29.12
2023-06-22T16:31:35.051Z,29.43
2023-06-22T16:33:36.989Z,29.64
2023-06-22T16:35:38.552Z,30.06
2023-06-22T16:37:58.727Z,30.10
2023-06-22T16:40:00.394Z,30.10
2023-06-22T16:42:06.216Z,30.08
2023-06-22T16:44:07.920Z,29.76
2023-06-22T16:46:09.828Z,29.71
2023-06-22T16:48:11.425Z,29.41
2023-06-22T16:50:13.420Z,29.15
2023-06-22T16:52:14.938Z,29.26
2023-06-22T16:54:17.100Z,29.10
2023-06-22T16:56:18.670Z,28.93
2023-06-22T16:58:24.408Z,28.84
2023-06-22T17:00:25.977Z,28.47
2023-06-22T17:02:30.529Z,28.39
2023-06-22T17:04:34.636Z,28.16
2023-06-22T17:06:37.143Z,28.14
2023-06-22T17:08:42.593Z,28.12
2023-06-22T17:10:44.429Z,27.92
2023-06-22T17:12:46.738Z,27.85
2023-06-22T17:14:52.633Z,27.83
2023-06-22T17:16:54.661Z,27.71
2023-06-22T17:21:04.531Z,27.47
2023-06-22T17:23:06.074Z,27.40
2023-06-22T17:25:10.610Z,27.28
2023-06-22T17:27:12.171Z,27.25
2023-06-22T17:29:13.797Z,27.05
2023-06-22T17:31:16.797Z,27.05
2023-06-22T17:33:18.606Z,26.99
2023-06-22T17:35:20.167Z,26.90
2023-06-22T17:37:21.715Z,26.76
2023-06-22T17:39:24.638Z,26.47
2023-06-22T17:41:32.862Z,26.45
2023-06-22T17:43:44.346Z,26.17
2023-06-22T17:48:09.482Z,26.02
2023-06-22T17:50:11.221Z,25.95
2023-06-22T17:52:17.541Z,25.69
2023-06-22T17:54:19.306Z,25.73
2023-06-22T17:56:25.429Z,25.57
2023-06-22T17:58:26.969Z,25.31
2023-06-22T18:00:29.503Z,25.29
2023-06-22T18:02:31.268Z,25.38
2023-06-22T18:04:34.360Z,25.39
2023-06-22T18:06:42.028Z,25.39
2023-06-22T18:08:52.268Z,25.39
2023-06-22T18:10:59.483Z,25.47
2023-06-22T18:15:23.075Z,25.20
2023-06-22T18:17:25.756Z,25.03
2023-06-22T18:19:27.592Z,24.87
2023-06-22T18:21:31.416Z,24.66
2023-06-22T18:23:33.955Z,24.65
2023-06-22T18:25:35.799Z,24.34
2023-06-22T18:27:37.672Z,24.27
2023-06-22T18:29:40.914Z,24.25
2023-06-22T18:31:42.991Z,24.08
2023-06-22T18:33:44.907Z,23.99
2023-06-22T18:35:48.110Z,23.82
2023-06-22T18:37:52.009Z,23.83
2023-06-22T18:39:55.256Z,23.76
2023-06-22T18:41:56.639Z,23.82
2023-06-22T18:44:00.735Z,23.52
2023-06-22T18:46:37.863Z,23.23
2023-06-22T18:48:39.451Z,23.19
2023-06-22T18:50:43.305Z,23.25
2023-06-22T18:52:44.874Z,23.16
2023-06-22T18:54:49.469Z,23.04
2023-06-22T18:56:55.738Z,22.89
2023-06-22T18:58:57.620Z,22.95
2023-06-22T19:01:16.086Z,23.03
2023-06-22T19:03:30.217Z,22.87
2023-06-22T19:05:40.569Z,22.94
2023-06-22T19:07:58.890Z,23.01
2023-06-22T19:10:24.331Z,22.96
2023-06-22T19:12:25.900Z,22.97
2023-06-22T19:14:27.441Z,22.86
2023-06-22T19:16:30.101Z,22.81
2023-06-22T19:18:34.165Z,22.78
2023-06-22T19:20:35.785Z,22.73
2023-06-22T19:23:01.207Z,22.66
2023-06-22T19:25:03.026Z,22.65
2023-06-22T19:27:06.773Z,22.62
2023-06-22T19:29:16.249Z,22.50
2023-06-22T19:31:19.105Z,22.43
2023-06-22T19:33:21.875Z,22.39
2023-06-22T19:35:23.550Z,22.35
2023-06-22T19:37:25.081Z,22.23
2023-06-22T19:39:35.439Z,22.20
2023-06-22T19:41:37.020Z,21.92
2023-06-22T19:43:39.955Z,22.01
2023-06-22T19:45:42.666Z,22.02
2023-06-22T19:47:45.155Z,21.90
2023-06-22T19:49:46.731Z,22.00
2023-06-22T19:51:48.278Z,22.01
2023-06-22T19:53:49.817Z,22.00
2023-06-22T19:55:51.922Z,21.99
2023-06-22T19:57:53.570Z,22.08
2023-06-22T19:59:57.627Z,21.90
2023-06-22T20:02:00.762Z,21.91
2023-06-22T20:04:04.406Z,21.69
2023-06-22T20:06:09.733Z,21.74
2023-06-22T20:08:12.961Z,21.56
2023-06-22T20:10:16.182Z,21.64
2023-06-22T20:12:24.065Z,21.56
2023-06-22T20:14:30.872Z,21.64
2023-06-22T20:16:47.259Z,21.60
2023-06-22T20:18:48.930Z,21.55
2023-06-22T20:20:52.459Z,21.49
2023-06-22T20:23:06.373Z,21.37
2023-06-22T20:25:08.648Z,21.43
2023-06-22T20:27:13.494Z,21.30
2023-06-22T20:29:23.544Z,21.36
2023-06-22T20:31:29.035Z,21.33
2023-06-22T20:33:32.733Z,21.16
2023-06-22T20:35:35.872Z,21.36
2023-06-22T20:37:37.467Z,21.28
2023-06-22T20:39:39.183Z,21.23
2023-06-22T20:41:40.696Z,21.27
2023-06-22T20:43:42.241Z,21.20
2023-06-22T20:45:43.802Z,20.96
2023-06-22T20:47:45.451Z,20.77
2023-06-22T20:49:48.436Z,20.95
2023-06-22T20:51:51.168Z,20.95
2023-06-22T20:53:52.681Z,20.88
2023-06-22T20:55:54.198Z,20.87
2023-06-22T20:57:55.875Z,20.95
2023-06-22T20:59:57.425Z,21.00
2023-06-22T21:01:59.200Z,20.97
2023-06-22T21:04:00.915Z,20.87
2023-06-22T21:06:03.873Z,20.87
2023-06-22T21:08:06.006Z,20.78
2023-06-22T21:10:08.008Z,20.72
2023-06-22T21:12:10.229Z,20.95
2023-06-22T21:14:19.273Z,20.99
2023-06-22T21:16:21.780Z,21.13
2023-06-22T21:18:23.293Z,20.88
2023-06-22T21:20:24.811Z,20.89
2023-06-22T21:22:31.104Z,20.90
2023-06-22T21:24:32.729Z,20.79
2023-06-22T21:29:27.168Z,21.05
2023-06-22T21:31:28.818Z,21.09
2023-06-22T21:33:30.436Z,21.01
2023-06-22T21:35:32.244Z,20.77
2023-06-22T21:40:17.419Z,20.65
2023-06-22T21:42:19.647Z,20.74
2023-06-22T21:44:21.220Z,20.79
2023-06-22T21:46:28.701Z,20.80
2023-06-22T21:48:30.341Z,20.72
2023-06-22T21:50:31.882Z,20.46
2023-06-22T21:52:33.458Z,20.53
2023-06-22T21:54:36.643Z,20.54
2023-06-22T21:56:38.173Z,20.53
2023-06-22T21:58:39.713Z,20.42
2023-06-22T22:00:41.292Z,20.48
2023-06-22T22:02:42.986Z,20.44
2023-06-22T22:04:44.605Z,20.50
2023-06-22T22:06:46.178Z,20.43
2023-06-22T22:08:47.703Z,20.61
2023-06-22T22:10:50.863Z,20.61
2023-06-22T22:12:52.420Z,20.67
2023-06-22T22:14:53.964Z,20.62
2023-06-22T22:16:55.550Z,20.28
2023-06-22T22:18:57.119Z,20.34
2023-06-22T22:20:58.635Z,20.50
2023-06-22T22:23:00.146Z,20.41
2023-06-22T22:25:01.729Z,20.31
2023-06-22T22:27:05.176Z,20.00
2023-06-22T22:29:06.561Z,19.88
2023-06-22T22:31:08.180Z,19.96
2023-06-22T22:33:10.840Z,20.05
2023-06-22T22:35:13.175Z,19.68
2023-06-22T22:37:14.742Z,19.85
2023-06-22T22:39:30.621Z,20.14
2023-06-22T22:41:32.177Z,20.13
2023-06-22T22:43:35.083Z,20.08
2023-06-22T22:45:36.636Z,19.84
2023-06-22T22:47:38.203Z,19.89
2023-06-22T22:49:39.779Z,19.92
2023-06-22T22:51:41.382Z,19.90
2023-06-22T22:53:43.143Z,20.09
2023-06-22T22:55:44.717Z,20.13
2023-06-22T22:57:46.277Z,20.02
2023-06-22T22:59:49.249Z,20.04
2023-06-22T23:01:50.847Z,19.99
2023-06-22T23:03:52.794Z,20.06
2023-06-22T23:05:54.358Z,20.23
2023-06-22T23:07:55.884Z,20.04
2023-06-22T23:09:58.175Z,20.13
2023-06-22T23:11:59.683Z,19.98
2023-06-22T23:14:01.247Z,19.97
2023-06-22T23:16:04.547Z,20.17
2023-06-22T23:18:06.136Z,20.09
2023-06-22T23:20:08.728Z,20.03
2023-06-22T23:22:10.357Z,20.11
2023-06-22T23:24:11.894Z,20.03
2023-06-22T23:26:13.436Z,20.21
2023-06-22T23:28:17.306Z,20.38
2023-06-22T23:30:24.068Z,20.05
2023-06-22T23:32:27.024Z,20.05
2023-06-22T23:34:28.589Z,20.07
2023-06-22T23:36:30.122Z,20.04
2023-06-22T23:38:31.680Z,19.76
2023-06-22T23:40:33.197Z,19.83
2023-06-22T23:42:34.720Z,19.83
2023-06-22T23:44:36.256Z,19.94
2023-06-22T23:46:37.879Z,19.88
2023-06-22T23:48:40.756Z,19.93
2023-06-22T23:50:42.313Z,19.89
2023-06-22T23:52:45.316Z,19.96
2023-06-22T23:54:46.876Z,19.97
2023-06-22T23:56:52.692Z,19.63
2023-06-22T23:58:54.220Z,19.65
